createdAt,value
2022-10-02T00:02:08.805Z,4.40
2022-10-02T00:07:13.425Z,4.82
2022-10-02T00:12:20.942Z,5.63
2022-10-02T00:17:33.708Z,5.95
2022-10-02T00:22:50.849Z,4.80
2022-10-02T00:28:07.414Z,5.78
2022-10-02T00:33:31.568Z,5.03
2022-10-02T00:38:44.811Z,6.05
2022-10-02T00:44:26.956Z,5.65
2022-10-02T00:49:44.729Z,5.55
2022-10-02T00:55:14.503Z,6.28
2022-10-02T01:00:19.913Z,4.70
2022-10-02T01:05:26.403Z,4.70
2022-10-02T01:10:33.758Z,5.18
2022-10-02T01:15:42.421Z,5.65
2022-10-02T01:20:53.260Z,5.88
2022-10-02T01:25:57.599Z,6.15
2022-10-02T01:31:11.555Z,5.43
2022-10-02T01:36:16.584Z,4.47
2022-10-02T01:41:20.602Z,5.38
2022-10-02T01:46:46.225Z,4.93
2022-10-02T01:52:01.944Z,4.65
2022-10-02T01:57:24.201Z,4.80
2022-10-02T02:02:38.334Z,5.50
2022-10-02T02:08:15.269Z,5.15
2022-10-02T02:13:39.550Z,5.80
2022-10-02T02:19:05.483Z,5.20
2022-10-02T02:24:18.458Z,4.97
2022-10-02T02:29:25.165Z,5.65
2022-10-02T02:34:36.670Z,5.07
2022-10-02T02:39:52.360Z,6.93
2022-10-02T02:45:05.702Z,4.95
2022-10-02T02:50:15.422Z,5.18
2022-10-02T02:55:23.957Z,5.20
2022-10-02T03:00:27.483Z,4.47
2022-10-02T03:05:32.669Z,6.03
2022-10-02T03:10:44.988Z,5.35
2022-10-02T03:15:54.904Z,4.90
2022-10-02T03:21:23.030Z,5.85
2022-10-02T03:26:37.645Z,6.57
2022-10-02T03:31:42.192Z,5.47
2022-10-02T03:36:47.093Z,5.55
2022-10-02T03:41:50.511Z,4.68
2022-10-02T03:46:53.775Z,4.45
2022-10-02T03:51:57.043Z,5.68
2022-10-02T03:57:05.334Z,5.10
2022-10-02T04:02:33.278Z,5.22
2022-10-02T04:07:40.418Z,4.97
2022-10-02T04:12:52.465Z,5.18
2022-10-02T04:18:08.189Z,5.03
2022-10-02T04:23:22.659Z,5.35
2022-10-02T04:28:39.534Z,5.20
2022-10-02T04:33:43.001Z,5.95
2022-10-02T04:39:01.444Z,5.20
2022-10-02T04:44:17.278Z,5.32
2022-10-02T04:49:55.599Z,6.88
2022-10-02T04:55:25.906Z,4.88
2022-10-02T05:00:44.232Z,4.68
2022-10-02T05:06:22.537Z,4.45
2022-10-02T05:11:31.902Z,4.07
2022-10-02T05:16:52.436Z,3.83
2022-10-02T05:22:32.613Z,5.32
2022-10-02T05:27:58.758Z,6.20
2022-10-02T05:33:08.334Z,3.65
2022-10-02T05:38:42.368Z,6.85
2022-10-02T05:44:10.839Z,4.35
2022-10-02T05:49:33.884Z,9.52
2022-10-02T05:55:22.475Z,8.93
2022-10-02T06:01:07.291Z,4.70
2022-10-02T06:06:23.230Z,4.30
2022-10-02T06:11:35.608Z,4.40
2022-10-02T06:16:51.833Z,4.95
2022-10-02T06:22:06.473Z,4.00
2022-10-02T06:27:21.451Z,5.88
2022-10-02T06:32:34.111Z,4.43
2022-10-02T06:37:52.110Z,4.47
2022-10-02T06:43:14.266Z,5.90
2022-10-02T06:48:35.065Z,5.00
2022-10-02T06:54:15.330Z,4.72
2022-10-02T06:59:47.404Z,4.60
2022-10-02T07:05:09.012Z,5.90
2022-10-02T07:10:27.492Z,4.53
2022-10-02T07:15:50.468Z,5.95
2022-10-02T07:21:08.687Z,4.72
2022-10-02T07:26:31.312Z,5.93
2022-10-02T07:32:06.313Z,4.70
2022-10-02T07:37:35.099Z,3.95
2022-10-02T07:43:00.644Z,5.63
2022-10-02T07:48:09.873Z,4.10
2022-10-02T07:53:33.934Z,4.82
2022-10-02T07:59:12.470Z,4.30
2022-10-02T08:04:21.561Z,5.25
2022-10-02T08:09:46.105Z,5.70
2022-10-02T08:14:52.665Z,5.32
2022-10-02T08:20:04.242Z,5.68
2022-10-02T08:25:26.014Z,4.53
2022-10-02T08:36:08.529Z,4.97
2022-10-02T08:41:32.726Z,7.40
2022-10-02T08:47:36.294Z,5.63
2022-10-02T08:52:58.246Z,4.78
2022-10-02T08:58:19.343Z,4.28
2022-10-02T09:03:44.544Z,4.97
2022-10-02T09:09:19.103Z,4.63
2022-10-02T09:14:44.536Z,5.47
2022-10-02T09:20:21.258Z,4.72
2022-10-02T09:25:58.662Z,5.65
2022-10-02T09:31:26.092Z,5.10
2022-10-02T09:36:51.315Z,5.32
2022-10-02T09:42:09.443Z,4.97
2022-10-02T09:47:31.059Z,4.38
2022-10-02T09:53:12.963Z,3.92
2022-10-02T09:58:38.415Z,3.78
2022-10-02T10:03:42.125Z,4.88
2022-10-02T10:08:48.357Z,4.68
2022-10-02T10:14:26.383Z,3.70
2022-10-02T10:19:47.647Z,3.15
2022-10-02T10:25:09.864Z,3.88
2022-10-02T10:30:20.142Z,4.10
2022-10-02T10:36:08.717Z,4.35
2022-10-02T10:41:52.358Z,4.35
2022-10-02T10:47:20.773Z,3.13
2022-10-02T10:52:42.756Z,3.20
2022-10-02T10:58:22.800Z,3.58
2022-10-02T11:04:06.827Z,4.20
2022-10-02T11:09:30.741Z,4.55
2022-10-02T11:14:52.668Z,5.07
2022-10-02T11:20:14.687Z,4.95
2022-10-02T11:25:33.776Z,4.53
2022-10-02T11:31:22.336Z,5.55
2022-10-02T11:36:55.480Z,4.45
2022-10-02T11:42:31.701Z,4.72
2022-10-02T11:48:02.700Z,4.43
2022-10-02T11:53:27.599Z,6.18
2022-10-02T11:58:45.230Z,5.40
2022-10-02T12:04:26.345Z,5.35
2022-10-02T12:10:02.358Z,4.65
2022-10-02T12:15:12.185Z,4.28
2022-10-02T12:21:09.256Z,4.95
2022-10-02T12:26:36.823Z,4.53
2022-10-02T12:32:42.100Z,4.82
2022-10-02T12:38:16.415Z,4.95
2022-10-02T12:43:50.073Z,4.88
2022-10-02T12:49:01.771Z,4.65
2022-10-02T12:54:43.166Z,6.30
2022-10-02T12:59:57.688Z,5.28
2022-10-02T13:05:22.662Z,5.18
2022-10-02T13:10:32.175Z,5.47
2022-10-02T13:15:52.267Z,5.45
2022-10-02T13:21:02.681Z,5.05
2022-10-02T13:26:16.134Z,5.72
2022-10-02T13:31:50.410Z,5.10
2022-10-02T13:37:35.340Z,6.68
2022-10-02T13:43:03.200Z,4.97
2022-10-02T13:48:12.611Z,5.18
2022-10-02T13:53:42.962Z,4.75
2022-10-02T13:59:13.369Z,5.10
2022-10-02T14:04:31.906Z,5.18
2022-10-02T14:09:59.468Z,5.20
2022-10-02T14:15:08.396Z,5.57
2022-10-02T14:20:27.713Z,5.95
2022-10-02T14:26:06.874Z,5.55
2022-10-02T14:31:16.806Z,4.53
2022-10-02T14:36:31.148Z,5.32
2022-10-02T14:41:49.506Z,5.38
2022-10-02T14:47:31.382Z,5.50
2022-10-02T14:52:49.603Z,4.95
2022-10-02T14:58:01.126Z,5.70
2022-10-02T15:03:22.872Z,6.15
2022-10-02T15:08:54.198Z,5.22
2022-10-02T15:14:43.971Z,4.90
2022-10-02T15:20:15.041Z,5.25
2022-10-02T15:25:49.140Z,4.93
2022-10-02T15:31:26.640Z,5.50
2022-10-02T15:36:45.770Z,7.05
2022-10-02T15:42:10.606Z,6.22
2022-10-02T15:47:45.728Z,5.55
2022-10-02T15:53:26.812Z,5.53
2022-10-02T15:59:07.081Z,6.28
2022-10-02T16:04:44.010Z,6.60
2022-10-02T16:10:19.552Z,6.60
2022-10-02T16:15:36.464Z,6.22
2022-10-02T16:20:58.130Z,6.18
2022-10-02T16:26:07.374Z,5.57
2022-10-02T16:31:37.551Z,6.05
2022-10-02T16:37:27.206Z,5.95
2022-10-02T16:43:09.767Z,6.25
2022-10-02T16:48:26.767Z,5.90
2022-10-02T16:53:36.450Z,6.45
2022-10-02T16:58:49.485Z,6.40
2022-10-02T17:04:14.561Z,6.53
2022-10-02T17:09:21.566Z,5.50
2022-10-02T17:14:45.668Z,6.82
2022-10-02T17:20:03.789Z,7.93
2022-10-02T17:25:25.286Z,7.30
2022-10-02T17:30:43.676Z,6.63
2022-10-02T17:36:01.527Z,6.75
2022-10-02T17:41:35.404Z,5.85
2022-10-02T17:46:57.443Z,5.53
2022-10-02T17:52:32.967Z,6.57
2022-10-02T17:58:02.200Z,6.30
2022-10-02T18:03:24.068Z,6.57
2022-10-02T18:08:41.355Z,5.78
2022-10-02T18:14:02.943Z,6.28
2022-10-02T18:19:31.906Z,6.30
2022-10-02T18:24:52.921Z,6.88
2022-10-02T18:30:12.685Z,5.95
2022-10-02T18:35:31.621Z,7.38
2022-10-02T18:40:53.261Z,6.32
2022-10-02T18:46:11.799Z,7.07
2022-10-02T18:51:28.859Z,6.20
2022-10-02T18:57:02.859Z,5.93
2022-10-02T19:02:23.010Z,6.40
2022-10-02T19:07:35.974Z,7.10
2022-10-02T19:12:43.353Z,6.45
2022-10-02T19:17:58.320Z,6.25
2022-10-02T19:23:03.093Z,6.07
2022-10-02T19:28:06.724Z,6.32
2022-10-02T19:33:20.784Z,5.72
2022-10-02T19:38:36.660Z,6.60
2022-10-02T19:44:03.364Z,6.57
2022-10-02T19:49:08.750Z,5.85
2022-10-02T19:54:27.290Z,7.53
2022-10-02T19:59:48.884Z,6.32
2022-10-02T20:05:00.338Z,7.00
2022-10-02T20:10:36.341Z,6.57
2022-10-02T20:15:49.135Z,5.68
2022-10-02T20:21:00.318Z,6.38
2022-10-02T20:26:08.611Z,6.60
2022-10-02T20:31:25.145Z,7.50
2022-10-02T20:36:55.256Z,7.70
2022-10-02T20:42:06.824Z,6.13
2022-10-02T20:47:27.837Z,6.78
2022-10-02T20:53:02.114Z,6.57
2022-10-02T20:58:35.355Z,6.85
2022-10-02T21:04:00.239Z,6.75
2022-10-02T21:09:37.238Z,7.38
2022-10-02T21:14:46.373Z,6.40
2022-10-02T21:20:27.512Z,6.03
2022-10-02T21:25:54.954Z,6.18
2022-10-02T21:31:39.304Z,5.82
2022-10-02T21:36:47.503Z,7.32
2022-10-02T21:41:50.687Z,6.88
2022-10-02T21:47:33.501Z,7.00
2022-10-02T21:52:59.256Z,7.38
2022-10-02T21:58:54.532Z,6.22
2022-10-02T22:04:13.254Z,5.90
2022-10-02T22:09:32.830Z,7.47
2022-10-02T22:14:41.641Z,6.40
2022-10-02T22:19:50.713Z,5.93
2022-10-02T22:25:36.538Z,5.85
2022-10-02T22:31:20.562Z,6.78
2022-10-02T22:37:15.207Z,6.13
2022-10-02T22:42:38.688Z,7.07
2022-10-02T22:47:58.277Z,7.50
2022-10-02T22:53:15.289Z,7.22
2022-10-02T22:58:30.866Z,9.15
2022-10-02T23:03:42.688Z,9.07
2022-10-02T23:08:51.756Z,10.10
2022-10-02T23:14:02.743Z,11.32
2022-10-02T23:19:18.907Z,12.30
2022-10-02T23:24:32.062Z,13.90
2022-10-02T23:29:54.297Z,11.68
2022-10-02T23:40:15.660Z,13.80
2022-10-02T23:45:44.551Z,13.05
2022-10-02T23:51:25.435Z,14.90
2022-10-02T23:56:46.782Z,15.38
